Terminal Aerodrome Forecast
Issued by NWS

Home | Current Version | Previous Version | Text Only | Print | Product List | Glossary On
Versions: 1 2 3 4 5 6 7 8 9 10 11 12
000
FTAK31 PAJN 261700
TAFAJN
TAF
PAJN 261736Z 2618/2718 08007KT P6SM VCSH FEW012 OVC045
     FM270000 10005KT 6SM -SHRA SCT015 OVC030
     FM270800 VRB05KT P6SM VCSH BKN050
     FM271100 00000KT 6SM BCFG FEW003 SCT050=

USA.gov is the U.S. government's official web portal to all federal, state and local government web resources and services.